sensor_id;sensor_type;location;lat;lon;timestamp;temperature;humidity
4564;DHT22;2294;51.818;8.484;2023-02-15T00:01:33;4.40;99.90
4564;DHT22;2294;51.818;8.484;2023-02-15T00:04:01;4.40;99.90
4564;DHT22;2294;51.818;8.484;2023-02-15T00:06:30;4.40;99.90
4564;DHT22;2294;51.818;8.484;2023-02-15T00:08:56;4.40;99.90
4564;DHT22;2294;51.818;8.484;2023-02-15T00:11:24;4.50;99.90
4564;DHT22;2294;51.818;8.484;2023-02-15T00:14:05;4.60;99.90
4564;DHT22;2294;51.818;8.484;2023-02-15T00:16:32;4.50;99.90
4564;DHT22;2294;51.818;8.484;2023-02-15T00:18:59;4.60;99.90
4564;DHT22;2294;51.818;8.484;2023-02-15T00:21:29;4.60;99.90
4564;DHT22;2294;51.818;8.484;2023-02-15T00:23:56;4.40;99.90
4564;DHT22;2294;51.818;8.484;2023-02-15T00:26:23;4.50;99.90
4564;DHT22;2294;51.818;8.484;2023-02-15T00:28:51;4.40;99.90
4564;DHT22;2294;51.818;8.484;2023-02-15T00:31:18;4.30;99.90
4564;DHT22;2294;51.818;8.484;2023-02-15T00:33:45;4.30;99.90
4564;DHT22;2294;51.818;8.484;2023-02-15T00:36:13;4.50;99.90
4564;DHT22;2294;51.818;8.484;2023-02-15T00:38:41;4.40;99.90
4564;DHT22;2294;51.818;8.484;2023-02-15T00:41:09;4.30;99.90
4564;DHT22;2294;51.818;8.484;2023-02-15T00:43:36;4.10;99.90
4564;DHT22;2294;51.818;8.484;2023-02-15T00:46:04;4.20;99.90
4564;DHT22;2294;51.818;8.484;2023-02-15T00:48:31;4.10;99.90
4564;DHT22;2294;51.818;8.484;2023-02-15T00:50:59;4.00;99.90
4564;DHT22;2294;51.818;8.484;2023-02-15T00:53:27;4.00;99.90
4564;DHT22;2294;51.818;8.484;2023-02-15T00:55:56;4.00;99.90
4564;DHT22;2294;51.818;8.484;2023-02-15T00:58:23;4.00;99.90
4564;DHT22;2294;51.818;8.484;2023-02-15T01:00:50;3.90;99.90
4564;DHT22;2294;51.818;8.484;2023-02-15T01:03:18;3.90;99.90
4564;DHT22;2294;51.818;8.484;2023-02-15T01:05:47;4.10;99.90
4564;DHT22;2294;51.818;8.484;2023-02-15T01:08:14;4.00;99.90
4564;DHT22;2294;51.818;8.484;2023-02-15T01:10:41;4.00;99.90
4564;DHT22;2294;51.818;8.484;2023-02-15T01:13:10;4.10;99.90
4564;DHT22;2294;51.818;8.484;2023-02-15T01:15:37;4.00;99.90
4564;DHT22;2294;51.818;8.484;2023-02-15T01:18:04;3.90;99.90
4564;DHT22;2294;51.818;8.484;2023-02-15T01:20:35;3.90;99.90
4564;DHT22;2294;51.818;8.484;2023-02-15T01:23:02;3.80;99.90
4564;DHT22;2294;51.818;8.484;2023-02-15T01:25:29;3.70;99.90
4564;DHT22;2294;51.818;8.484;2023-02-15T01:27:56;3.70;99.90
4564;DHT22;2294;51.818;8.484;2023-02-15T01:30:24;3.70;99.90
4564;DHT22;2294;51.818;8.484;2023-02-15T01:32:51;3.80;99.90
4564;DHT22;2294;51.818;8.484;2023-02-15T01:35:18;3.80;99.90
4564;DHT22;2294;51.818;8.484;2023-02-15T01:37:45;3.60;99.90
4564;DHT22;2294;51.818;8.484;2023-02-15T01:40:16;3.60;99.90
4564;DHT22;2294;51.818;8.484;2023-02-15T01:42:44;3.60;99.90
4564;DHT22;2294;51.818;8.484;2023-02-15T01:45:19;3.60;99.90
4564;DHT22;2294;51.818;8.484;2023-02-15T01:47:52;3.50;99.90
4564;DHT22;2294;51.818;8.484;2023-02-15T01:50:24;3.60;99.90
4564;DHT22;2294;51.818;8.484;2023-02-15T01:52:55;3.60;99.90
4564;DHT22;2294;51.818;8.484;2023-02-15T01:55:25;3.50;99.90
4564;DHT22;2294;51.818;8.484;2023-02-15T01:57:54;3.50;99.90
4564;DHT22;2294;51.818;8.484;2023-02-15T02:00:22;3.40;99.90
4564;DHT22;2294;51.818;8.484;2023-02-15T02:02:53;3.50;99.90
4564;DHT22;2294;51.818;8.484;2023-02-15T02:05:21;3.40;99.90
4564;DHT22;2294;51.818;8.484;2023-02-15T02:07:50;3.30;99.90
4564;DHT22;2294;51.818;8.484;2023-02-15T02:10:19;3.40;99.90
4564;DHT22;2294;51.818;8.484;2023-02-15T02:12:49;3.40;99.90
4564;DHT22;2294;51.818;8.484;2023-02-15T02:15:17;3.30;99.90
4564;DHT22;2294;51.818;8.484;2023-02-15T02:17:56;3.30;99.90
4564;DHT22;2294;51.818;8.484;2023-02-15T02:20:42;3.30;99.90
4564;DHT22;2294;51.818;8.484;2023-02-15T02:23:24;3.30;99.90
4564;DHT22;2294;51.818;8.484;2023-02-15T02:29:32;3.30;99.90
4564;DHT22;2294;51.818;8.484;2023-02-15T02:32:28;3.50;99.90
4564;DHT22;2294;51.818;8.484;2023-02-15T02:35:08;3.40;99.90
4564;DHT22;2294;51.818;8.484;2023-02-15T02:37:46;3.30;99.90
4564;DHT22;2294;51.818;8.484;2023-02-15T02:40:20;3.30;99.90
4564;DHT22;2294;51.818;8.484;2023-02-15T02:42:54;3.30;99.90
4564;DHT22;2294;51.818;8.484;2023-02-15T02:45:26;3.30;99.90
4564;DHT22;2294;51.818;8.484;2023-02-15T02:47:59;3.40;99.90
4564;DHT22;2294;51.818;8.484;2023-02-15T02:50:30;3.40;99.90
4564;DHT22;2294;51.818;8.484;2023-02-15T02:52:58;3.50;99.90
4564;DHT22;2294;51.818;8.484;2023-02-15T02:55:28;3.50;99.90
4564;DHT22;2294;51.818;8.484;2023-02-15T02:57:59;3.60;99.90
4564;DHT22;2294;51.818;8.484;2023-02-15T03:00:30;3.50;99.90
4564;DHT22;2294;51.818;8.484;2023-02-15T03:03:01;3.40;99.90
4564;DHT22;2294;51.818;8.484;2023-02-15T03:05:32;3.50;99.90
4564;DHT22;2294;51.818;8.484;2023-02-15T03:08:02;3.50;99.90
4564;DHT22;2294;51.818;8.484;2023-02-15T03:10:33;3.40;99.90
4564;DHT22;2294;51.818;8.484;2023-02-15T03:13:01;3.60;99.90
4564;DHT22;2294;51.818;8.484;2023-02-15T03:15:30;3.80;99.90
4564;DHT22;2294;51.818;8.484;2023-02-15T03:18:22;3.90;99.90
4564;DHT22;2294;51.818;8.484;2023-02-15T03:20:52;3.90;99.90
4564;DHT22;2294;51.818;8.484;2023-02-15T03:23:22;3.90;99.90
4564;DHT22;2294;51.818;8.484;2023-02-15T03:25:55;4.00;99.90
4564;DHT22;2294;51.818;8.484;2023-02-15T03:28:27;4.00;99.90
4564;DHT22;2294;51.818;8.484;2023-02-15T03:30:58;3.80;99.90
4564;DHT22;2294;51.818;8.484;2023-02-15T03:33:26;3.80;99.90
4564;DHT22;2294;51.818;8.484;2023-02-15T03:36:02;3.80;99.90
4564;DHT22;2294;51.818;8.484;2023-02-15T03:38:34;3.90;99.90
4564;DHT22;2294;51.818;8.484;2023-02-15T03:41:03;4.10;99.90
4564;DHT22;2294;51.818;8.484;2023-02-15T03:43:43;4.10;99.90
4564;DHT22;2294;51.818;8.484;2023-02-15T03:46:17;3.90;99.90
4564;DHT22;2294;51.818;8.484;2023-02-15T03:48:49;3.90;99.90
4564;DHT22;2294;51.818;8.484;2023-02-15T03:51:21;3.80;99.90
4564;DHT22;2294;51.818;8.484;2023-02-15T03:54:04;3.60;99.90
4564;DHT22;2294;51.818;8.484;2023-02-15T03:56:33;3.70;99.90
4564;DHT22;2294;51.818;8.484;2023-02-15T03:59:00;3.70;99.90
4564;DHT22;2294;51.818;8.484;2023-02-15T04:01:50;3.90;99.90
4564;DHT22;2294;51.818;8.484;2023-02-15T04:04:36;3.90;99.90
4564;DHT22;2294;51.818;8.484;2023-02-15T04:07:07;3.80;99.90
4564;DHT22;2294;51.818;8.484;2023-02-15T04:09:34;3.90;99.90
4564;DHT22;2294;51.818;8.484;2023-02-15T04:12:18;3.90;99.90
4564;DHT22;2294;51.818;8.484;2023-02-15T04:14:45;3.90;99.90
4564;DHT22;2294;51.818;8.484;2023-02-15T04:17:30;3.90;99.90
4564;DHT22;2294;51.818;8.484;2023-02-15T04:19:56;4.00;99.90
4564;DHT22;2294;51.818;8.484;2023-02-15T04:22:42;4.00;99.90
4564;DHT22;2294;51.818;8.484;2023-02-15T04:25:27;4.00;99.90
4564;DHT22;2294;51.818;8.484;2023-02-15T04:27:54;4.00;99.90
4564;DHT22;2294;51.818;8.484;2023-02-15T04:30:23;4.00;99.90
4564;DHT22;2294;51.818;8.484;2023-02-15T04:32:50;4.00;99.90
4564;DHT22;2294;51.818;8.484;2023-02-15T04:35:18;4.00;99.90
4564;DHT22;2294;51.818;8.484;2023-02-15T04:37:46;3.90;99.90
4564;DHT22;2294;51.818;8.484;2023-02-15T04:40:14;3.90;99.90
4564;DHT22;2294;51.818;8.484;2023-02-15T04:42:41;4.00;99.90
4564;DHT22;2294;51.818;8.484;2023-02-15T04:45:08;4.00;99.90
4564;DHT22;2294;51.818;8.484;2023-02-15T04:47:35;3.90;99.90
4564;DHT22;2294;51.818;8.484;2023-02-15T04:50:02;4.00;99.90
4564;DHT22;2294;51.818;8.484;2023-02-15T04:52:29;3.90;99.90
4564;DHT22;2294;51.818;8.484;2023-02-15T04:54:58;3.90;99.90
4564;DHT22;2294;51.818;8.484;2023-02-15T04:57:24;3.90;99.90
4564;DHT22;2294;51.818;8.484;2023-02-15T04:59:51;3.80;99.90
4564;DHT22;2294;51.818;8.484;2023-02-15T05:02:18;3.70;99.90
4564;DHT22;2294;51.818;8.484;2023-02-15T05:04:45;3.70;99.90
4564;DHT22;2294;51.818;8.484;2023-02-15T05:07:12;3.70;99.90
4564;DHT22;2294;51.818;8.484;2023-02-15T05:09:40;3.70;99.90
4564;DHT22;2294;51.818;8.484;2023-02-15T05:12:08;3.70;99.90
4564;DHT22;2294;51.818;8.484;2023-02-15T05:14:35;3.60;99.90
4564;DHT22;2294;51.818;8.484;2023-02-15T05:17:02;3.80;99.90
4564;DHT22;2294;51.818;8.484;2023-02-15T05:19:30;3.70;99.90
4564;DHT22;2294;51.818;8.484;2023-02-15T05:21:57;3.70;99.90
4564;DHT22;2294;51.818;8.484;2023-02-15T05:24:24;3.60;99.90
4564;DHT22;2294;51.818;8.484;2023-02-15T05:27:12;3.50;99.90
4564;DHT22;2294;51.818;8.484;2023-02-15T05:29:52;3.50;99.90
4564;DHT22;2294;51.818;8.484;2023-02-15T05:32:19;3.30;99.90
4564;DHT22;2294;51.818;8.484;2023-02-15T05:34:46;3.20;99.90
4564;DHT22;2294;51.818;8.484;2023-02-15T05:37:13;3.30;99.90
4564;DHT22;2294;51.818;8.484;2023-02-15T05:39:40;3.30;99.90
4564;DHT22;2294;51.818;8.484;2023-02-15T05:42:07;3.40;99.90
4564;DHT22;2294;51.818;8.484;2023-02-15T05:44:35;3.30;99.90
4564;DHT22;2294;51.818;8.484;2023-02-15T05:47:02;3.30;99.90
4564;DHT22;2294;51.818;8.484;2023-02-15T05:49:29;3.30;99.90
4564;DHT22;2294;51.818;8.484;2023-02-15T05:51:57;3.40;99.90
4564;DHT22;2294;51.818;8.484;2023-02-15T05:54:24;3.40;99.90
4564;DHT22;2294;51.818;8.484;2023-02-15T05:56:50;3.30;99.90
4564;DHT22;2294;51.818;8.484;2023-02-15T05:59:17;3.40;99.90
4564;DHT22;2294;51.818;8.484;2023-02-15T06:01:45;3.40;99.90
4564;DHT22;2294;51.818;8.484;2023-02-15T06:04:12;3.40;99.90
4564;DHT22;2294;51.818;8.484;2023-02-15T06:06:39;3.30;99.90
4564;DHT22;2294;51.818;8.484;2023-02-15T06:09:06;3.40;99.90
4564;DHT22;2294;51.818;8.484;2023-02-15T06:11:33;3.30;99.90
4564;DHT22;2294;51.818;8.484;2023-02-15T06:14:00;3.50;99.90
4564;DHT22;2294;51.818;8.484;2023-02-15T06:16:27;3.50;99.90
4564;DHT22;2294;51.818;8.484;2023-02-15T06:18:55;3.50;99.90
4564;DHT22;2294;51.818;8.484;2023-02-15T06:21:22;3.40;99.90
4564;DHT22;2294;51.818;8.484;2023-02-15T06:23:49;3.50;99.90
4564;DHT22;2294;51.818;8.484;2023-02-15T06:26:16;3.60;99.90
4564;DHT22;2294;51.818;8.484;2023-02-15T06:28:43;3.60;99.90
4564;DHT22;2294;51.818;8.484;2023-02-15T06:31:10;3.60;99.90
4564;DHT22;2294;51.818;8.484;2023-02-15T06:33:37;3.50;99.90
4564;DHT22;2294;51.818;8.484;2023-02-15T06:36:05;3.50;99.90
4564;DHT22;2294;51.818;8.484;2023-02-15T06:38:32;3.60;99.90
4564;DHT22;2294;51.818;8.484;2023-02-15T06:40:59;3.60;99.90
4564;DHT22;2294;51.818;8.484;2023-02-15T06:43:26;3.50;99.90
4564;DHT22;2294;51.818;8.484;2023-02-15T06:45:53;3.40;99.90
4564;DHT22;2294;51.818;8.484;2023-02-15T06:48:20;3.40;99.90
4564;DHT22;2294;51.818;8.484;2023-02-15T06:50:47;3.40;99.90
4564;DHT22;2294;51.818;8.484;2023-02-15T06:53:16;3.50;99.90
4564;DHT22;2294;51.818;8.484;2023-02-15T06:55:42;3.50;99.90
4564;DHT22;2294;51.818;8.484;2023-02-15T06:58:09;3.40;99.90
4564;DHT22;2294;51.818;8.484;2023-02-15T07:00:36;3.50;99.90
4564;DHT22;2294;51.818;8.484;2023-02-15T07:03:03;3.70;99.90
4564;DHT22;2294;51.818;8.484;2023-02-15T07:05:33;3.80;99.90
4564;DHT22;2294;51.818;8.484;2023-02-15T07:08:01;3.80;99.90
4564;DHT22;2294;51.818;8.484;2023-02-15T07:10:29;3.80;99.90
4564;DHT22;2294;51.818;8.484;2023-02-15T07:12:56;3.90;99.90
4564;DHT22;2294;51.818;8.484;2023-02-15T07:15:22;3.90;99.90
4564;DHT22;2294;51.818;8.484;2023-02-15T07:17:49;3.90;99.90
4564;DHT22;2294;51.818;8.484;2023-02-15T07:20:18;3.90;99.90
4564;DHT22;2294;51.818;8.484;2023-02-15T07:22:46;3.90;99.90
4564;DHT22;2294;51.818;8.484;2023-02-15T07:25:13;4.00;99.90
4564;DHT22;2294;51.818;8.484;2023-02-15T07:27:42;4.20;99.90
4564;DHT22;2294;51.818;8.484;2023-02-15T07:30:12;4.20;99.90
4564;DHT22;2294;51.818;8.484;2023-02-15T07:32:39;4.20;99.90
4564;DHT22;2294;51.818;8.484;2023-02-15T07:35:27;4.40;99.90
4564;DHT22;2294;51.818;8.484;2023-02-15T07:37:54;6.80;99.90
4564;DHT22;2294;51.818;8.484;2023-02-15T07:40:21;4.50;99.90
4564;DHT22;2294;51.818;8.484;2023-02-15T07:42:50;4.60;99.90
4564;DHT22;2294;51.818;8.484;2023-02-15T07:45:20;4.60;99.90
4564;DHT22;2294;51.818;8.484;2023-02-15T07:47:47;6.00;99.90
4564;DHT22;2294;51.818;8.484;2023-02-15T07:50:15;4.70;99.90
4564;DHT22;2294;51.818;8.484;2023-02-15T07:52:42;4.80;99.90
4564;DHT22;2294;51.818;8.484;2023-02-15T07:55:09;4.90;99.90
4564;DHT22;2294;51.818;8.484;2023-02-15T07:57:41;5.00;99.90
4564;DHT22;2294;51.818;8.484;2023-02-15T08:00:12;5.10;99.90
4564;DHT22;2294;51.818;8.484;2023-02-15T08:02:40;5.20;99.90
4564;DHT22;2294;51.818;8.484;2023-02-15T08:05:07;5.20;99.90
4564;DHT22;2294;51.818;8.484;2023-02-15T08:07:34;5.30;99.90
4564;DHT22;2294;51.818;8.484;2023-02-15T08:10:01;5.30;99.90
4564;DHT22;2294;51.818;8.484;2023-02-15T08:12:28;5.40;99.90
4564;DHT22;2294;51.818;8.484;2023-02-15T08:14:55;5.40;99.90
4564;DHT22;2294;51.818;8.484;2023-02-15T08:17:23;5.50;99.90
4564;DHT22;2294;51.818;8.484;2023-02-15T08:19:50;5.50;99.90
4564;DHT22;2294;51.818;8.484;2023-02-15T08:22:17;5.60;99.90
4564;DHT22;2294;51.818;8.484;2023-02-15T08:24:44;5.60;99.90
4564;DHT22;2294;51.818;8.484;2023-02-15T08:27:11;5.70;99.90
4564;DHT22;2294;51.818;8.484;2023-02-15T08:29:38;5.80;99.90
4564;DHT22;2294;51.818;8.484;2023-02-15T08:32:08;5.90;99.90
4564;DHT22;2294;51.818;8.484;2023-02-15T08:34:38;6.00;99.90
4564;DHT22;2294;51.818;8.484;2023-02-15T08:37:05;6.10;99.90
4564;DHT22;2294;51.818;8.484;2023-02-15T08:39:32;6.10;99.90
4564;DHT22;2294;51.818;8.484;2023-02-15T08:41:59;6.20;99.90
4564;DHT22;2294;51.818;8.484;2023-02-15T08:44:26;6.20;99.90
4564;DHT22;2294;51.818;8.484;2023-02-15T08:46:53;6.30;99.90
4564;DHT22;2294;51.818;8.484;2023-02-15T08:49:21;6.40;99.90
4564;DHT22;2294;51.818;8.484;2023-02-15T08:51:49;6.30;99.90
4564;DHT22;2294;51.818;8.484;2023-02-15T08:54:18;6.80;99.90
4564;DHT22;2294;51.818;8.484;2023-02-15T08:56:46;6.40;99.90
4564;DHT22;2294;51.818;8.484;2023-02-15T08:59:15;6.40;99.90
4564;DHT22;2294;51.818;8.484;2023-02-15T09:01:42;6.50;99.90
4564;DHT22;2294;51.818;8.484;2023-02-15T09:04:09;6.50;99.90
4564;DHT22;2294;51.818;8.484;2023-02-15T09:06:36;6.60;99.90
4564;DHT22;2294;51.818;8.484;2023-02-15T09:09:05;6.50;99.90
4564;DHT22;2294;51.818;8.484;2023-02-15T09:11:35;6.60;99.90
4564;DHT22;2294;51.818;8.484;2023-02-15T09:14:04;6.60;99.90
4564;DHT22;2294;51.818;8.484;2023-02-15T09:16:32;6.60;99.90
4564;DHT22;2294;51.818;8.484;2023-02-15T09:19:00;6.70;99.90
4564;DHT22;2294;51.818;8.484;2023-02-15T09:21:28;6.70;99.90
4564;DHT22;2294;51.818;8.484;2023-02-15T09:23:57;6.70;99.90
4564;DHT22;2294;51.818;8.484;2023-02-15T09:26:29;6.80;99.90
4564;DHT22;2294;51.818;8.484;2023-02-15T09:28:58;6.80;99.90
4564;DHT22;2294;51.818;8.484;2023-02-15T09:31:27;6.90;99.90
4564;DHT22;2294;51.818;8.484;2023-02-15T09:33:54;6.80;99.90
4564;DHT22;2294;51.818;8.484;2023-02-15T09:36:23;6.80;99.90
4564;DHT22;2294;51.818;8.484;2023-02-15T09:38:55;7.00;99.90
4564;DHT22;2294;51.818;8.484;2023-02-15T09:41:53;6.90;99.90
4564;DHT22;2294;51.818;8.484;2023-02-15T09:44:32;7.10;99.90
4564;DHT22;2294;51.818;8.484;2023-02-15T09:47:28;7.10;99.90
4564;DHT22;2294;51.818;8.484;2023-02-15T09:50:03;7.00;99.90
4564;DHT22;2294;51.818;8.484;2023-02-15T09:52:45;7.10;99.90
4564;DHT22;2294;51.818;8.484;2023-02-15T09:55:30;7.10;99.90
4564;DHT22;2294;51.818;8.484;2023-02-15T09:58:06;7.10;99.90
4564;DHT22;2294;51.818;8.484;2023-02-15T10:00:41;7.30;99.90
4564;DHT22;2294;51.818;8.484;2023-02-15T10:03:19;7.20;99.90
4564;DHT22;2294;51.818;8.484;2023-02-15T10:05:59;7.30;99.90
4564;DHT22;2294;51.818;8.484;2023-02-15T10:08:58;7.30;99.90
4564;DHT22;2294;51.818;8.484;2023-02-15T10:11:36;7.40;99.90
4564;DHT22;2294;51.818;8.484;2023-02-15T10:14:17;7.60;99.90
4564;DHT22;2294;51.818;8.484;2023-02-15T10:16:54;7.60;99.90
4564;DHT22;2294;51.818;8.484;2023-02-15T10:19:29;7.70;99.90
4564;DHT22;2294;51.818;8.484;2023-02-15T10:22:11;7.60;99.90
4564;DHT22;2294;51.818;8.484;2023-02-15T10:25:07;7.70;99.90
4564;DHT22;2294;51.818;8.484;2023-02-15T10:27:43;7.90;99.90
4564;DHT22;2294;51.818;8.484;2023-02-15T10:30:15;8.00;99.90
4564;DHT22;2294;51.818;8.484;2023-02-15T10:32:51;8.10;99.90
4564;DHT22;2294;51.818;8.484;2023-02-15T10:35:24;8.10;99.90
4564;DHT22;2294;51.818;8.484;2023-02-15T10:38:13;8.10;99.90
4564;DHT22;2294;51.818;8.484;2023-02-15T10:40:49;7.90;99.90
4564;DHT22;2294;51.818;8.484;2023-02-15T10:43:32;8.20;99.90
4564;DHT22;2294;51.818;8.484;2023-02-15T10:46:11;8.20;99.90
4564;DHT22;2294;51.818;8.484;2023-02-15T10:52:03;8.80;99.90
4564;DHT22;2294;51.818;8.484;2023-02-15T10:54:36;8.80;99.90
4564;DHT22;2294;51.818;8.484;2023-02-15T10:57:16;8.70;99.90
4564;DHT22;2294;51.818;8.484;2023-02-15T10:59:58;8.70;99.90
4564;DHT22;2294;51.818;8.484;2023-02-15T11:02:45;8.80;99.90
4564;DHT22;2294;51.818;8.484;2023-02-15T11:05:35;9.00;99.90
4564;DHT22;2294;51.818;8.484;2023-02-15T11:08:06;8.80;99.90
4564;DHT22;2294;51.818;8.484;2023-02-15T11:10:36;8.70;99.90
4564;DHT22;2294;51.818;8.484;2023-02-15T11:13:09;8.90;99.90
4564;DHT22;2294;51.818;8.484;2023-02-15T11:15:39;9.20;99.90
4564;DHT22;2294;51.818;8.484;2023-02-15T11:18:13;9.40;99.90
4564;DHT22;2294;51.818;8.484;2023-02-15T11:20:45;9.40;99.90
4564;DHT22;2294;51.818;8.484;2023-02-15T11:23:14;9.40;99.90
4564;DHT22;2294;51.818;8.484;2023-02-15T11:25:46;9.50;99.90
4564;DHT22;2294;51.818;8.484;2023-02-15T11:28:19;9.50;99.90
4564;DHT22;2294;51.818;8.484;2023-02-15T11:30:50;9.40;99.90
4564;DHT22;2294;51.818;8.484;2023-02-15T11:33:22;9.70;99.90
4564;DHT22;2294;51.818;8.484;2023-02-15T11:35:55;9.80;99.90
4564;DHT22;2294;51.818;8.484;2023-02-15T11:38:26;9.60;99.90
4564;DHT22;2294;51.818;8.484;2023-02-15T11:40:55;9.80;99.90
4564;DHT22;2294;51.818;8.484;2023-02-15T11:43:28;9.90;99.90
4564;DHT22;2294;51.818;8.484;2023-02-15T11:45:56;10.00;99.90
4564;DHT22;2294;51.818;8.484;2023-02-15T11:48:24;10.10;99.90
4564;DHT22;2294;51.818;8.484;2023-02-15T11:50:51;10.20;99.90
4564;DHT22;2294;51.818;8.484;2023-02-15T11:53:19;10.20;99.90
4564;DHT22;2294;51.818;8.484;2023-02-15T11:55:50;10.30;99.90
4564;DHT22;2294;51.818;8.484;2023-02-15T11:58:26;10.60;99.90
4564;DHT22;2294;51.818;8.484;2023-02-15T12:00:58;10.70;99.90
4564;DHT22;2294;51.818;8.484;2023-02-15T12:03:38;10.80;99.90
4564;DHT22;2294;51.818;8.484;2023-02-15T12:06:14;10.80;99.90
4564;DHT22;2294;51.818;8.484;2023-02-15T12:08:48;11.00;99.90
4564;DHT22;2294;51.818;8.484;2023-02-15T12:11:21;11.20;99.90
4564;DHT22;2294;51.818;8.484;2023-02-15T12:13:57;11.40;99.90
4564;DHT22;2294;51.818;8.484;2023-02-15T12:16:24;11.30;99.90
4564;DHT22;2294;51.818;8.484;2023-02-15T12:18:55;11.30;99.90
4564;DHT22;2294;51.818;8.484;2023-02-15T12:21:28;11.70;99.90
4564;DHT22;2294;51.818;8.484;2023-02-15T12:24:00;12.00;99.90
4564;DHT22;2294;51.818;8.484;2023-02-15T12:26:30;12.00;99.90
4564;DHT22;2294;51.818;8.484;2023-02-15T12:28:59;12.10;99.90
4564;DHT22;2294;51.818;8.484;2023-02-15T12:31:31;12.30;99.90
4564;DHT22;2294;51.818;8.484;2023-02-15T12:34:03;12.20;99.90
4564;DHT22;2294;51.818;8.484;2023-02-15T12:36:41;12.50;99.90
4564;DHT22;2294;51.818;8.484;2023-02-15T12:39:20;12.50;99.90
4564;DHT22;2294;51.818;8.484;2023-02-15T12:41:59;12.50;99.90
4564;DHT22;2294;51.818;8.484;2023-02-15T12:44:27;12.60;99.90
4564;DHT22;2294;51.818;8.484;2023-02-15T12:46:59;12.80;99.90
4564;DHT22;2294;51.818;8.484;2023-02-15T12:49:29;12.80;99.90
4564;DHT22;2294;51.818;8.484;2023-02-15T12:51:58;13.00;99.90
4564;DHT22;2294;51.818;8.484;2023-02-15T12:54:36;13.20;99.90
4564;DHT22;2294;51.818;8.484;2023-02-15T12:57:29;13.20;99.90
4564;DHT22;2294;51.818;8.484;2023-02-15T12:59:58;13.10;99.90
4564;DHT22;2294;51.818;8.484;2023-02-15T13:02:28;13.20;99.90
4564;DHT22;2294;51.818;8.484;2023-02-15T13:05:06;13.20;99.90
4564;DHT22;2294;51.818;8.484;2023-02-15T13:07:45;13.10;99.90
4564;DHT22;2294;51.818;8.484;2023-02-15T13:10:22;13.20;99.90
4564;DHT22;2294;51.818;8.484;2023-02-15T13:12:51;13.10;99.90
4564;DHT22;2294;51.818;8.484;2023-02-15T13:15:28;13.20;99.90
4564;DHT22;2294;51.818;8.484;2023-02-15T13:17:58;13.40;99.90
4564;DHT22;2294;51.818;8.484;2023-02-15T13:20:27;13.40;99.90
4564;DHT22;2294;51.818;8.484;2023-02-15T13:22:58;13.70;99.90
4564;DHT22;2294;51.818;8.484;2023-02-15T13:25:29;14.50;99.90
4564;DHT22;2294;51.818;8.484;2023-02-15T13:28:01;14.90;99.90
4564;DHT22;2294;51.818;8.484;2023-02-15T13:30:31;14.80;99.90
4564;DHT22;2294;51.818;8.484;2023-02-15T13:33:02;14.30;99.90
4564;DHT22;2294;51.818;8.484;2023-02-15T13:35:38;14.90;99.90
4564;DHT22;2294;51.818;8.484;2023-02-15T13:38:15;15.60;99.90
4564;DHT22;2294;51.818;8.484;2023-02-15T13:40:48;15.40;99.90
4564;DHT22;2294;51.818;8.484;2023-02-15T13:43:30;15.60;99.90
4564;DHT22;2294;51.818;8.484;2023-02-15T13:46:36;15.40;99.90
4564;DHT22;2294;51.818;8.484;2023-02-15T13:49:16;14.80;99.90
4564;DHT22;2294;51.818;8.484;2023-02-15T13:51:55;14.20;99.90
4564;DHT22;2294;51.818;8.484;2023-02-15T13:54:43;14.30;99.90
4564;DHT22;2294;51.818;8.484;2023-02-15T13:59:48;14.20;99.90
4564;DHT22;2294;51.818;8.484;2023-02-15T14:02:36;14.10;99.90
4564;DHT22;2294;51.818;8.484;2023-02-15T14:05:24;14.10;99.90
4564;DHT22;2294;51.818;8.484;2023-02-15T14:07:59;14.30;99.90
4564;DHT22;2294;51.818;8.484;2023-02-15T14:10:38;14.40;99.90
4564;DHT22;2294;51.818;8.484;2023-02-15T14:16:05;14.30;99.90
4564;DHT22;2294;51.818;8.484;2023-02-15T14:18:38;14.50;99.90
4564;DHT22;2294;51.818;8.484;2023-02-15T14:21:12;14.50;99.90
4564;DHT22;2294;51.818;8.484;2023-02-15T14:23:53;14.30;99.90
4564;DHT22;2294;51.818;8.484;2023-02-15T14:26:32;14.10;99.90
4564;DHT22;2294;51.818;8.484;2023-02-15T14:29:13;14.10;99.90
4564;DHT22;2294;51.818;8.484;2023-02-15T14:31:45;14.30;99.90
4564;DHT22;2294;51.818;8.484;2023-02-15T14:34:19;14.40;99.90
4564;DHT22;2294;51.818;8.484;2023-02-15T14:36:48;14.40;99.90
4564;DHT22;2294;51.818;8.484;2023-02-15T14:39:25;14.30;99.90
4564;DHT22;2294;51.818;8.484;2023-02-15T14:42:17;14.30;99.90
4564;DHT22;2294;51.818;8.484;2023-02-15T14:44:52;14.40;99.90
4564;DHT22;2294;51.818;8.484;2023-02-15T14:47:22;14.50;99.90
4564;DHT22;2294;51.818;8.484;2023-02-15T14:49:52;14.50;99.90
4564;DHT22;2294;51.818;8.484;2023-02-15T14:52:19;14.80;99.90
4564;DHT22;2294;51.818;8.484;2023-02-15T14:55:00;15.00;99.90
4564;DHT22;2294;51.818;8.484;2023-02-15T14:57:30;15.10;99.90
4564;DHT22;2294;51.818;8.484;2023-02-15T14:59:59;15.10;99.90
4564;DHT22;2294;51.818;8.484;2023-02-15T15:02:30;14.90;99.90
4564;DHT22;2294;51.818;8.484;2023-02-15T15:05:07;14.90;99.90
4564;DHT22;2294;51.818;8.484;2023-02-15T15:07:43;14.70;99.90
4564;DHT22;2294;51.818;8.484;2023-02-15T15:10:40;14.70;99.90
4564;DHT22;2294;51.818;8.484;2023-02-15T15:16:46;14.80;99.90
4564;DHT22;2294;51.818;8.484;2023-02-15T15:22:18;15.10;99.90
4564;DHT22;2294;51.818;8.484;2023-02-15T15:24:50;15.40;99.90
4564;DHT22;2294;51.818;8.484;2023-02-15T15:27:38;15.50;99.90
4564;DHT22;2294;51.818;8.484;2023-02-15T15:33:46;14.60;99.90
4564;DHT22;2294;51.818;8.484;2023-02-15T15:40:00;14.10;99.90
4564;DHT22;2294;51.818;8.484;2023-02-15T15:42:41;13.70;99.90
4564;DHT22;2294;51.818;8.484;2023-02-15T15:45:32;13.50;99.90
4564;DHT22;2294;51.818;8.484;2023-02-15T15:48:26;13.20;99.90
4564;DHT22;2294;51.818;8.484;2023-02-15T15:50:58;12.80;99.90
4564;DHT22;2294;51.818;8.484;2023-02-15T15:53:27;12.70;99.90
4564;DHT22;2294;51.818;8.484;2023-02-15T15:55:58;12.60;99.90
4564;DHT22;2294;51.818;8.484;2023-02-15T15:58:28;12.20;99.90
4564;DHT22;2294;51.818;8.484;2023-02-15T16:01:00;12.00;99.90
4564;DHT22;2294;51.818;8.484;2023-02-15T16:03:30;12.00;99.90
4564;DHT22;2294;51.818;8.484;2023-02-15T16:05:57;11.70;99.90
4564;DHT22;2294;51.818;8.484;2023-02-15T16:08:27;11.50;99.90
4564;DHT22;2294;51.818;8.484;2023-02-15T16:10:55;11.30;99.90
4564;DHT22;2294;51.818;8.484;2023-02-15T16:13:22;11.20;99.90
4564;DHT22;2294;51.818;8.484;2023-02-15T16:15:52;11.10;99.90
4564;DHT22;2294;51.818;8.484;2023-02-15T16:18:22;11.10;99.90
4564;DHT22;2294;51.818;8.484;2023-02-15T16:20:52;11.00;99.90
4564;DHT22;2294;51.818;8.484;2023-02-15T16:23:50;10.90;99.90
4564;DHT22;2294;51.818;8.484;2023-02-15T16:26:40;10.70;99.90
4564;DHT22;2294;51.818;8.484;2023-02-15T16:29:14;10.60;99.90
4564;DHT22;2294;51.818;8.484;2023-02-15T16:31:43;10.60;99.90
4564;DHT22;2294;51.818;8.484;2023-02-15T16:34:16;10.40;99.90
4564;DHT22;2294;51.818;8.484;2023-02-15T16:36:43;10.20;99.90
4564;DHT22;2294;51.818;8.484;2023-02-15T16:39:18;10.10;99.90
4564;DHT22;2294;51.818;8.484;2023-02-15T16:41:45;9.90;99.90
4564;DHT22;2294;51.818;8.484;2023-02-15T16:44:17;9.80;99.90
4564;DHT22;2294;51.818;8.484;2023-02-15T16:46:48;9.60;99.90
4564;DHT22;2294;51.818;8.484;2023-02-15T16:49:18;9.60;99.90
4564;DHT22;2294;51.818;8.484;2023-02-15T16:51:55;9.60;99.90
4564;DHT22;2294;51.818;8.484;2023-02-15T16:54:23;9.50;99.90
4564;DHT22;2294;51.818;8.484;2023-02-15T16:56:51;9.40;99.90
4564;DHT22;2294;51.818;8.484;2023-02-15T16:59:31;9.40;99.90
4564;DHT22;2294;51.818;8.484;2023-02-15T17:02:01;9.30;99.90
4564;DHT22;2294;51.818;8.484;2023-02-15T17:04:31;9.30;99.90
4564;DHT22;2294;51.818;8.484;2023-02-15T17:07:03;9.20;99.90
4564;DHT22;2294;51.818;8.484;2023-02-15T17:09:32;9.20;99.90
4564;DHT22;2294;51.818;8.484;2023-02-15T17:12:00;9.10;99.90